weather station
Area: 7197 km2
The highest point: Čupec (819 m.s.l.)
Total stations: 41
Stations online: 39
Stations offline: 2
Current weather
18°C

Meteorological map - weather stations in Jihomoravský

. The meteorological maps show weather information from WARIO weather stations

Weather stations Jihomoravský

 UpdatesNameStatusTemperatureHumidityWind speedWind direction
20.6.2019 18:03Adamov18.6 °C61.5 %0.2 m/s SE
20.6.2019 18:04Archlebov19.1 °C68.7 %3.2 m/s W
20.6.2019 18:03Boskovice17.1 °C74.0 %1.0 m/s SE
20.6.2019 18:03Brno - Líšeň16.8 °C100.0 %1.6 m/s N
20.6.2019 18:03Brno - Vinohrady18.5 °C68.1 %2.7 m/s N
20.6.2019 18:03Brno - Komín16.3 °C97.1 %1.0 m/s W
20.6.2019 18:04Brno - Kníničky15.4 °C99.2 %0.0 m/s W
20.6.2019 18:04Býkovice14.7 °C91.1 %0.0 m/s SW
20.6.2019 18:03Bítov20.4 °C87.8 %2.2 m/s SE
20.6.2019 18:04Dobšice19.3 °C82.0 %3.0 m/s SE
20.6.2019 18:04Drnholec20.5 °C74.2 %2.7 m/s NE
20.6.2019 18:04Lelekovice14.9 °C100.0 %2.0 m/s W
20.6.2019 18:03Hrušovany u Brna19.0 °C67.7 %2.0 m/s N
20.6.2019 18:03Brno - Maloměřice16.1 °C94.5 %0.9 m/s NE
20.6.2019 18:04Moravany21.0 °C56.1 %2.4 m/s W
20.6.2019 18:04Brno - Štýřice15.8 °C87.9 %1.1 m/s N
7.5.2019 11:38Pasohlávky13.0 °C44.6 %1.3 m/s SW
20.6.2019 18:03Višňové18.1 °C91.8 %0.0 m/s W
20.6.2019 18:04Meteo B14.8 °C100.0 %2.3 m/s W
20.6.2019 18:03Dolní Dubňany16.8 °C86.4 %2.4 m/s N
20.6.2019 18:04Bzenec21.8 °C60.8 %0.0 m/s NW
20.6.2019 18:04Brno - Jih16.4 °C84.7 %3.0 m/s N
20.6.2019 18:03Svatobořice20.8 °C60.5 %3.8 m/s SE
20.6.2019 18:04Moravské Bránice16.3 °C100.0 %2.4 m/s E
20.6.2019 18:04Pohořelice19.1 °C90.6 %1.3 m/s W
20.6.2019 18:03Brno - Přízřenice16.9 °C80.3 %1.5 m/s S
20.6.2019 18:04Rousínov17.0 °C86.5 %0.0 m/s S
20.6.2019 18:04Senorady16.4 °C94.3 %1.0 m/s SE
20.6.2019 18:04Skalice u Znojma20.0 °C92.4 %0.0 m/s W
20.6.2019 18:03Šlapanice15.8 °C89.0 %1.1 m/s N
20.6.2019 18:04Brno - Trnitá16.6 °C100.0 %0.0 m/s W
20.6.2019 18:04Kuřim15.0 °C100.0 %0.6 m/s E
20.6.2019 18:03Strážnice25.2 °C48.9 %0.0 m/s W
20.6.2019 18:03Strážnice GUMEX25.1 °C58.0 %4.7 m/s E
20.6.2019 18:03Valtice21.8 °C55.9 %0.0 m/s S
20.6.2019 18:03Velatice14.9 °C100.0 %1.5 m/s NE
20.6.2019 18:04Veselí nad Moravou24.4 °C56.0 %0.0 m/s NW
20.6.2019 18:03Lipov - Vinařství a penzion Kostelanský24.8 °C66.6 %0.0 m/s W
21.5.2019 07:52Vrbovec11.3 °C89.3 %0.6 m/s SE
20.6.2019 18:04Rájec-Jestřebí15.6 °C93.7 %1.4 m/s E
20.6.2019 18:04Brno - Královo Pole16.1 °C89.1 %1.2 m/s W
Email notifications
Enter your email address to subscribe to notifications about news at warioweather.com. Your email address will not be used for any purpose other than sending these emails and will not be provided to any third party. The subscription can be ended at any time.
All data are only indicative. The portal administrator has no responsibility for potentially incorrect data and related consequences. Publishing or further sharing of content from www.warioweather.com is only allowed with written consent from WANET s.r.o.